^^
Saratoga-Weather Station Historical Data
Daily Summary for March 16, 2020 Units:  Both    English   Metric
Daily Weekly Monthly Yearly Custom
  High: Low: Average:
Temperature: 61.3 °F /  16.3 °C 58.8 °F /  14.9 °C 59.9 °F /  15.5 °C
Dew Point: 57.4 °F /  14.1 °C 54.3 °F /  12.4 °C 56.1 °F /  13.4 °C
Humidity: 90% 84% 87%
Wind Speed: 6.9mph /  11.1km/h - 2.6mph /  4.2km/h
Wind Gust: 11mph /  17.7km/h - -
Wind- - West
Pressure: 30 in /  1017.3 hPa 30 in /  1015.6 hPa -
Precipitation: 0 in /  0.0 mm    
Historical Graphs
 
 
Tabular Data for March 16, 2020
Time Temperature Dew Point Pressure Wind Wind Speed Wind Gust Humidity Rainfall Rate (Hourly) solar
00:04 60.6 °F /  15.9 °C 57 °F /  13.9 °C 30in /  1015.6hPa Calm     88% 0in /  0.0mm 0 W/m2
00:09 60.8 °F /  16 °C 57.2 °F /  14 °C 30in /  1015.6hPa ENE 0.9mph /  1.4km/h 2mph /  3.2km/h 88% 0in /  0.0mm 0 W/m2
00:14 60.8 °F /  16 °C 57.2 °F /  14 °C 30in /  1015.9hPa NW 0.9mph /  1.4km/h 1mph /  1.6km/h 88% 0in /  0.0mm 0 W/m2
00:20 61 °F /  16.1 °C 57.4 °F /  14.1 °C 30in /  1015.9hPa Calm   1mph /  1.6km/h 88% 0in /  0.0mm 0 W/m2
00:25 61 °F /  16.1 °C 57 °F /  13.9 °C 30in /  1015.9hPa Calm   1mph /  1.6km/h 87% 0in /  0.0mm 0 W/m2
00:30 61 °F /  16.1 °C 57 °F /  13.9 °C 30in /  1015.9hPa Calm   1mph /  1.6km/h 87% 0in /  0.0mm 0 W/m2
00:35 61 °F /  16.1 °C 57 °F /  13.9 °C 30in /  1015.9hPa Calm   1mph /  1.6km/h 87% 0in /  0.0mm 0 W/m2
00:40 61.2 °F /  16.2 °C 57.2 °F /  14 °C 30in /  1015.9hPa Calm   1mph /  1.6km/h 87% 0in /  0.0mm 0 W/m2
00:45 61.2 °F /  16.2 °C 57.2 °F /  14 °C 30in /  1015.9hPa Calm   1mph /  1.6km/h 87% 0in /  0.0mm 0 W/m2
00:50 61.2 °F /  16.2 °C 57.2 °F /  14 °C 30in /  1015.9hPa Calm   1mph /  1.6km/h 87% 0in /  0.0mm 0 W/m2
00:55 61.2 °F /  16.2 °C 57.2 °F /  14 °C 30in /  1015.9hPa WNW 0.9mph /  1.4km/h 3mph /  4.8km/h 87% 0in /  0.0mm 0 W/m2
01:00 61.2 °F /  16.2 °C 57.2 °F /  14 °C 30in /  1015.9hPa Calm   1mph /  1.6km/h 87% 0in /  0.0mm 0 W/m2
01:05 61.2 °F /  16.2 °C 57 °F /  13.9 °C 30in /  1015.9hPa Calm   3mph /  4.8km/h 86% 0in /  0.0mm 0 W/m2
01:10 61.3 °F /  16.3 °C 57.2 °F /  14 °C 30in /  1015.9hPa WSW 2mph /  3.2km/h 3mph /  4.8km/h 86% 0in /  0.0mm 0 W/m2
01:15 61.3 °F /  16.3 °C 57.2 °F /  14 °C 30in /  1015.9hPa West 2mph /  3.2km/h 6mph /  9.7km/h 86% 0in /  0.0mm 0 W/m2
01:20 61.3 °F /  16.3 °C 57.2 °F /  14 °C 30in /  1015.9hPa WSW 2.9mph /  4.7km/h 4mph /  6.4km/h 86% 0in /  0.0mm 0 W/m2
01:25 61.3 °F /  16.3 °C 57.2 °F /  14 °C 30in /  1015.9hPa West 0.9mph /  1.4km/h 3mph /  4.8km/h 86% 0in /  0.0mm 0 W/m2
01:30 61.3 °F /  16.3 °C 57.2 °F /  14 °C 30in /  1015.9hPa SW 4mph /  6.4km/h 7mph /  11.3km/h 86% 0in /  0.0mm 0 W/m2
01:35 61.3 °F /  16.3 °C 57.2 °F /  14 °C 30in /  1015.9hPa WSW 4mph /  6.4km/h 4mph /  6.4km/h 86% 0in /  0.0mm 0 W/m2
01:40 61.3 °F /  16.3 °C 57.4 °F /  14.1 °C 30in /  1015.9hPa WNW 2.9mph /  4.7km/h 7mph /  11.3km/h 87% 0in /  0.0mm 0 W/m2
01:45 61.3 °F /  16.3 °C 57.4 °F /  14.1 °C 30in /  1015.9hPa West 2mph /  3.2km/h 4mph /  6.4km/h 87% 0in /  0.0mm 0 W/m2
01:50 61.3 °F /  16.3 °C 57.4 °F /  14.1 °C 30in /  1015.9hPa WNW 4.9mph /  7.9km/h 6mph /  9.7km/h 87% 0in /  0.0mm 0 W/m2
01:55 61.2 °F /  16.2 °C 57.2 °F /  14 °C 30in /  1015.9hPa West 6mph /  9.7km/h 6mph /  9.7km/h 87% 0in /  0.0mm 0 W/m2
02:00 61.2 °F /  16.2 °C 57.2 °F /  14 °C 30in /  1015.9hPa WNW 0.9mph /  1.4km/h 7mph /  11.3km/h 87% 0in /  0.0mm 0 W/m2
02:05 61 °F /  16.1 °C 57 °F /  13.9 °C 30in /  1015.9hPa WSW 4mph /  6.4km/h 8mph /  12.9km/h 87% 0in /  0.0mm 0 W/m2
02:10 61 °F /  16.1 °C 57 °F /  13.9 °C 30in /  1015.9hPa West 2.9mph /  4.7km/h 6mph /  9.7km/h 87% 0in /  0.0mm 0 W/m2
02:15 61 °F /  16.1 °C 57 °F /  13.9 °C 30in /  1015.9hPa West 2mph /  3.2km/h 8mph /  12.9km/h 87% 0in /  0.0mm 0 W/m2
02:20 61 °F /  16.1 °C 57 °F /  13.9 °C 30in /  1015.9hPa WSW 2mph /  3.2km/h 5mph /  8km/h 87% 0in /  0.0mm 0 W/m2
02:25 60.8 °F /  16 °C 56.8 °F /  13.8 °C 30in /  1015.9hPa WSW 4mph /  6.4km/h 8mph /  12.9km/h 87% 0in /  0.0mm 0 W/m2
02:30 60.6 °F /  15.9 °C 57 °F /  13.9 °C 30in /  1015.9hPa West 2.9mph /  4.7km/h 8mph /  12.9km/h 88% 0in /  0.0mm 0 W/m2
02:35 60.6 °F /  15.9 °C 57 °F /  13.9 °C 30in /  1015.9hPa WNW 6mph /  9.7km/h 8mph /  12.9km/h 88% 0in /  0.0mm 0 W/m2
02:40 60.6 °F /  15.9 °C 57 °F /  13.9 °C 30in /  1015.9hPa NW 2.9mph /  4.7km/h 4mph /  6.4km/h 88% 0in /  0.0mm 0 W/m2
02:45 60.6 °F /  15.9 °C 57 °F /  13.9 °C 30in /  1015.9hPa West 2.9mph /  4.7km/h 8mph /  12.9km/h 88% 0in /  0.0mm 0 W/m2
02:50 60.6 °F /  15.9 °C 57 °F /  13.9 °C 30in /  1015.6hPa SW 4mph /  6.4km/h 4mph /  6.4km/h 88% 0in /  0.0mm 0 W/m2
02:55 60.6 °F /  15.9 °C 56.7 °F /  13.7 °C 30in /  1015.9hPa West 2.9mph /  4.7km/h 6mph /  9.7km/h 87% 0in /  0.0mm 0 W/m2
03:00 60.6 °F /  15.9 °C 57 °F /  13.9 °C 30in /  1015.9hPa WNW 2.9mph /  4.7km/h 6mph /  9.7km/h 88% 0in /  0.0mm 0 W/m2
03:05 60.6 °F /  15.9 °C 57 °F /  13.9 °C 30in /  1015.9hPa West 4mph /  6.4km/h 8mph /  12.9km/h 88% 0in /  0.0mm 0 W/m2
03:10 60.6 °F /  15.9 °C 56.7 °F /  13.7 °C 30in /  1015.9hPa West 2mph /  3.2km/h 4mph /  6.4km/h 87% 0in /  0.0mm 0 W/m2
03:15 60.6 °F /  15.9 °C 56.7 °F /  13.7 °C 30in /  1015.9hPa WNW 6mph /  9.7km/h 6mph /  9.7km/h 87% 0in /  0.0mm 0 W/m2
03:20 60.6 °F /  15.9 °C 56.7 °F /  13.7 °C 30in /  1015.9hPa NW 2.9mph /  4.7km/h 6mph /  9.7km/h 87% 0in /  0.0mm 0 W/m2
03:25 60.6 °F /  15.9 °C 56.7 °F /  13.7 °C 30in /  1015.9hPa West 6mph /  9.7km/h 7mph /  11.3km/h 87% 0in /  0.0mm 0 W/m2
03:30 60.4 °F /  15.8 °C 56.5 °F /  13.6 °C 30in /  1015.9hPa WSW 2mph /  3.2km/h 8mph /  12.9km/h 87% 0in /  0.0mm 0 W/m2
03:35 60.4 °F /  15.8 °C 56.5 °F /  13.6 °C 30in /  1015.9hPa WNW 0.9mph /  1.4km/h 7mph /  11.3km/h 87% 0in /  0.0mm 0 W/m2
03:40 60.4 °F /  15.8 °C 56.5 °F /  13.6 °C 30in /  1015.9hPa West 6mph /  9.7km/h 8mph /  12.9km/h 87% 0in /  0.0mm 0 W/m2
03:45 60.4 °F /  15.8 °C 56.5 °F /  13.6 °C 30in /  1015.9hPa West 2.9mph /  4.7km/h 5mph /  8km/h 87% 0in /  0.0mm 0 W/m2
03:50 60.4 °F /  15.8 °C 56.5 °F /  13.6 °C 30in /  1015.9hPa West 4mph /  6.4km/h 7mph /  11.3km/h 87% 0in /  0.0mm 0 W/m2
03:55 60.3 °F /  15.7 °C 56.3 °F /  13.5 °C 30in /  1015.9hPa West 0.9mph /  1.4km/h 3mph /  4.8km/h 87% 0in /  0.0mm 0 W/m2
04:00 60.3 °F /  15.7 °C 56.3 °F /  13.5 °C 30in /  1015.9hPa WSW 0.9mph /  1.4km/h 7mph /  11.3km/h 87% 0in /  0.0mm 0 W/m2
04:05 60.3 °F /  15.7 °C 56.3 °F /  13.5 °C 30in /  1015.9hPa WSW 2.9mph /  4.7km/h 3mph /  4.8km/h 87% 0in /  0.0mm 0 W/m2
04:10 60.3 °F /  15.7 °C 56.3 °F /  13.5 °C 30in /  1015.9hPa West 2mph /  3.2km/h 4mph /  6.4km/h 87% 0in /  0.0mm 0 W/m2
04:15 60.3 °F /  15.7 °C 56.7 °F /  13.7 °C 30in /  1015.9hPa WNW 2mph /  3.2km/h 2mph /  3.2km/h 88% 0in /  0.0mm 0 W/m2
04:20 60.1 °F /  15.6 °C 56.5 °F /  13.6 °C 30in /  1015.9hPa WSW 0.9mph /  1.4km/h 3mph /  4.8km/h 88% 0in /  0.0mm 0 W/m2
04:25 60.1 °F /  15.6 °C 56.5 °F /  13.6 °C 30in /  1015.9hPa West 2mph /  3.2km/h 3mph /  4.8km/h 88% 0in /  0.0mm 0 W/m2
04:30 60.1 °F /  15.6 °C 56.8 °F /  13.8 °C 30in /  1015.9hPa West 0.9mph /  1.4km/h 3mph /  4.8km/h 89% 0in /  0.0mm 0 W/m2
04:35 59.9 °F /  15.5 °C 56.7 °F /  13.7 °C 30in /  1015.9hPa West 2mph /  3.2km/h 3mph /  4.8km/h 89% 0in /  0.0mm 0 W/m2
04:40 59.7 °F /  15.4 °C 56.5 °F /  13.6 °C 30in /  1015.9hPa West 2.9mph /  4.7km/h 3mph /  4.8km/h 89% 0in /  0.0mm 0 W/m2
04:45 59.7 °F /  15.4 °C 56.5 °F /  13.6 °C 30in /  1015.9hPa West 2.9mph /  4.7km/h 4mph /  6.4km/h 89% 0in /  0.0mm 0 W/m2
04:50 59.7 °F /  15.4 °C 56.5 °F /  13.6 °C 30in /  1015.9hPa NW 2.9mph /  4.7km/h 3mph /  4.8km/h 89% 0in /  0.0mm 0 W/m2
04:55 59.7 °F /  15.4 °C 56.5 °F /  13.6 °C 30in /  1015.9hPa WNW 2mph /  3.2km/h 4mph /  6.4km/h 89% 0in /  0.0mm 0 W/m2
05:00 59.7 °F /  15.4 °C 56.8 °F /  13.8 °C 30in /  1016.3hPa NW 2mph /  3.2km/h 2mph /  3.2km/h 90% 0in /  0.0mm 0 W/m2
05:05 59.7 °F /  15.4 °C 56.8 °F /  13.8 °C 30in /  1015.9hPa WSW 2.9mph /  4.7km/h 3mph /  4.8km/h 90% 0in /  0.0mm 0 W/m2
05:10 59.7 °F /  15.4 °C 56.8 °F /  13.8 °C 30in /  1016.3hPa NW 2mph /  3.2km/h 4mph /  6.4km/h 90% 0in /  0.0mm 0 W/m2
05:15 59.7 °F /  15.4 °C 56.8 °F /  13.8 °C 30in /  1016.3hPa West 2mph /  3.2km/h 6mph /  9.7km/h 90% 0in /  0.0mm 0 W/m2
05:20 59.7 °F /  15.4 °C 56.8 °F /  13.8 °C 30in /  1016.3hPa WNW 2.9mph /  4.7km/h 7mph /  11.3km/h 90% 0in /  0.0mm 0 W/m2
05:25 59.7 °F /  15.4 °C 56.8 °F /  13.8 °C 30in /  1016.3hPa WNW 2mph /  3.2km/h 4mph /  6.4km/h 90% 0in /  0.0mm 0 W/m2
05:30 59.7 °F /  15.4 °C 56.8 °F /  13.8 °C 30in /  1016.3hPa West 2mph /  3.2km/h 7mph /  11.3km/h 90% 0in /  0.0mm 0 W/m2
05:35 59.7 °F /  15.4 °C 56.8 °F /  13.8 °C 30in /  1016.3hPa West 4mph /  6.4km/h 8mph /  12.9km/h 90% 0in /  0.0mm 0 W/m2
05:40 59.5 °F /  15.3 °C 56.7 °F /  13.7 °C 30in /  1016.3hPa WSW 4mph /  6.4km/h 9mph /  14.5km/h 90% 0in /  0.0mm 0 W/m2
05:45 59.5 °F /  15.3 °C 56.7 °F /  13.7 °C 30in /  1016.3hPa West 6mph /  9.7km/h 6mph /  9.7km/h 90% 0in /  0.0mm 0 W/m2
05:50 59.5 °F /  15.3 °C 56.7 °F /  13.7 °C 30in /  1016.3hPa West 2.9mph /  4.7km/h 9mph /  14.5km/h 90% 0in /  0.0mm 0 W/m2
05:55 59.5 °F /  15.3 °C 56.7 °F /  13.7 °C 30in /  1016.3hPa WSW 4.9mph /  7.9km/h 6mph /  9.7km/h 90% 0in /  0.0mm 0 W/m2
06:00 59.5 °F /  15.3 °C 56.3 °F /  13.5 °C 30in /  1016.3hPa West 2.9mph /  4.7km/h 5mph /  8km/h 89% 0in /  0.0mm 0 W/m2
06:05 59.5 °F /  15.3 °C 56.3 °F /  13.5 °C 30in /  1016.3hPa West 2mph /  3.2km/h 6mph /  9.7km/h 89% 0in /  0.0mm 0 W/m2
06:10 59.5 °F /  15.3 °C 56.3 °F /  13.5 °C 30in /  1016.3hPa WNW 2mph /  3.2km/h 3mph /  4.8km/h 89% 0in /  0.0mm 0 W/m2
06:15 59.5 °F /  15.3 °C 56.3 °F /  13.5 °C 30in /  1016.3hPa WNW 2.9mph /  4.7km/h 4mph /  6.4km/h 89% 0in /  0.0mm 0 W/m2
06:20 59.5 °F /  15.3 °C 56.3 °F /  13.5 °C 30in /  1016.3hPa WNW 0.9mph /  1.4km/h 4mph /  6.4km/h 89% 0in /  0.0mm 7 W/m2
06:25 59.4 °F /  15.2 °C 56.1 °F /  13.4 °C 30in /  1016.3hPa WSW 4mph /  6.4km/h 6mph /  9.7km/h 89% 0in /  0.0mm 12 W/m2
06:30 59.4 °F /  15.2 °C 56.1 °F /  13.4 °C 30in /  1016.3hPa WNW 2mph /  3.2km/h 8mph /  12.9km/h 89% 0in /  0.0mm 11 W/m2
06:35 59.4 °F /  15.2 °C 56.1 °F /  13.4 °C 30in /  1016.3hPa NW 4.9mph /  7.9km/h 7mph /  11.3km/h 89% 0in /  0.0mm 12 W/m2
06:40 59.2 °F /  15.1 °C 55.6 °F /  13.1 °C 30in /  1016.3hPa West 2mph /  3.2km/h 8mph /  12.9km/h 88% 0in /  0.0mm 18 W/m2
06:45 59.2 °F /  15.1 °C 55.4 °F /  13 °C 30in /  1016.3hPa WSW 2.9mph /  4.7km/h 7mph /  11.3km/h 87% 0in /  0.0mm 25 W/m2
06:50 59.2 °F /  15.1 °C 55.4 °F /  13 °C 30in /  1016.3hPa WSW 2.9mph /  4.7km/h 4mph /  6.4km/h 87% 0in /  0.0mm 18 W/m2
06:55 59.2 °F /  15.1 °C 55.4 °F /  13 °C 30in /  1016.3hPa West 2.9mph /  4.7km/h 4mph /  6.4km/h 87% 0in /  0.0mm 28 W/m2
07:00 59.2 °F /  15.1 °C 55.4 °F /  13 °C 30in /  1016.3hPa WNW 2.9mph /  4.7km/h 3mph /  4.8km/h 87% 0in /  0.0mm 30 W/m2
07:05 59.2 °F /  15.1 °C 55.4 °F /  13 °C 30in /  1016.3hPa West 2mph /  3.2km/h 3mph /  4.8km/h 87% 0in /  0.0mm 30 W/m2
07:10 59.2 °F /  15.1 °C 55.4 °F /  13 °C 30in /  1016.3hPa SW 2.9mph /  4.7km/h 5mph /  8km/h 87% 0in /  0.0mm 21 W/m2
07:15 59.2 °F /  15.1 °C 55.4 °F /  13 °C 30in /  1016.3hPa West 2mph /  3.2km/h 6mph /  9.7km/h 87% 0in /  0.0mm 18 W/m2
07:20 59 °F /  15 °C 55.2 °F /  12.9 °C 30in /  1016.3hPa WNW 0.9mph /  1.4km/h 4mph /  6.4km/h 87% 0in /  0.0mm 26 W/m2
07:25 59 °F /  15 °C 55.2 °F /  12.9 °C 30in /  1016.6hPa West 2mph /  3.2km/h 4mph /  6.4km/h 87% 0in /  0.0mm 26 W/m2
07:30 59 °F /  15 °C 55.2 °F /  12.9 °C 30in /  1016.6hPa West 4mph /  6.4km/h 4mph /  6.4km/h 87% 0in /  0.0mm 21 W/m2
07:35 59 °F /  15 °C 55.2 °F /  12.9 °C 30in /  1016.6hPa NW 4mph /  6.4km/h 4mph /  6.4km/h 87% 0in /  0.0mm 21 W/m2
07:40 59 °F /  15 °C 55.4 °F /  13 °C 30in /  1016.6hPa WSW 4mph /  6.4km/h 4mph /  6.4km/h 88% 0in /  0.0mm 26 W/m2
07:45 58.8 °F /  14.9 °C 55 °F /  12.8 °C 30in /  1016.6hPa WNW 4.9mph /  7.9km/h 7mph /  11.3km/h 87% 0in /  0.0mm 39 W/m2
07:50 59 °F /  15 °C 55.2 °F /  12.9 °C 30in /  1016.6hPa West 4mph /  6.4km/h 5mph /  8km/h 87% 0in /  0.0mm 44 W/m2
07:55 58.8 °F /  14.9 °C 54.7 °F /  12.6 °C 30in /  1016.6hPa WSW 4mph /  6.4km/h 9mph /  14.5km/h 86% 0in /  0.0mm 40 W/m2
08:00 58.8 °F /  14.9 °C 54.7 °F /  12.6 °C 30in /  1016.6hPa West 6mph /  9.7km/h 8mph /  12.9km/h 86% 0in /  0.0mm 42 W/m2
08:05 58.8 °F /  14.9 °C 54.7 °F /  12.6 °C 30in /  1016.6hPa West 6.9mph /  11.1km/h 10mph /  16.1km/h 86% 0in /  0.0mm 39 W/m2
08:10 58.8 °F /  14.9 °C 54.7 °F /  12.6 °C 30in /  1016.6hPa NW 4mph /  6.4km/h 4mph /  6.4km/h 86% 0in /  0.0mm 32 W/m2
08:15 58.8 °F /  14.9 °C 54.3 °F /  12.4 °C 30in /  1016.9hPa WNW 2mph /  3.2km/h 8mph /  12.9km/h 85% 0in /  0.0mm 32 W/m2
08:20 58.8 °F /  14.9 °C 54.7 °F /  12.6 °C 30in /  1016.9hPa West 2mph /  3.2km/h 8mph /  12.9km/h 86% 0in /  0.0mm 35 W/m2
08:25 58.8 °F /  14.9 °C 54.7 °F /  12.6 °C 30in /  1016.9hPa NW 4mph /  6.4km/h 4mph /  6.4km/h 86% 0in /  0.0mm 33 W/m2
08:30 58.8 °F /  14.9 °C 54.7 °F /  12.6 °C 30in /  1016.9hPa West 0.9mph /  1.4km/h 8mph /  12.9km/h 86% 0in /  0.0mm 37 W/m2
08:35 58.8 °F /  14.9 °C 54.7 °F /  12.6 °C 30in /  1016.9hPa WNW 2mph /  3.2km/h 3mph /  4.8km/h 86% 0in /  0.0mm 33 W/m2
08:40 58.8 °F /  14.9 °C 54.7 °F /  12.6 °C 30in /  1016.9hPa West 2mph /  3.2km/h 3mph /  4.8km/h 86% 0in /  0.0mm 35 W/m2
08:46 58.8 °F /  14.9 °C 54.7 °F /  12.6 °C 30in /  1016.9hPa SW 2mph /  3.2km/h 3mph /  4.8km/h 86% 0in /  0.0mm 42 W/m2
08:51 58.8 °F /  14.9 °C 55 °F /  12.8 °C 30in /  1016.9hPa Calm   2mph /  3.2km/h 87% 0in /  0.0mm 56 W/m2
08:56 58.8 °F /  14.9 °C 55 °F /  12.8 °C 30in /  1016.9hPa WSW 2mph /  3.2km/h 5mph /  8km/h 87% 0in /  0.0mm 77 W/m2
09:01 58.8 °F /  14.9 °C 55 °F /  12.8 °C 30in /  1016.9hPa NW 0.9mph /  1.4km/h 3mph /  4.8km/h 87% 0in /  0.0mm 72 W/m2
09:06 59 °F /  15 °C 55.2 °F /  12.9 °C 30in /  1016.9hPa West 4mph /  6.4km/h 5mph /  8km/h 87% 0in /  0.0mm 72 W/m2
09:11 59.2 °F /  15.1 °C 55.4 °F /  13 °C 30in /  1016.9hPa West 2.9mph /  4.7km/h 8mph /  12.9km/h 87% 0in /  0.0mm 72 W/m2
09:16 59.2 °F /  15.1 °C 55.4 °F /  13 °C 30in /  1016.9hPa WSW 2.9mph /  4.7km/h 3mph /  4.8km/h 87% 0in /  0.0mm 62 W/m2
09:21 59.4 °F /  15.2 °C 55.2 °F /  12.9 °C 30in /  1016.9hPa SSW 2.9mph /  4.7km/h 8mph /  12.9km/h 86% 0in /  0.0mm 77 W/m2
09:26 59.4 °F /  15.2 °C 55.2 °F /  12.9 °C 30in /  1016.9hPa West 4mph /  6.4km/h 6mph /  9.7km/h 86% 0in /  0.0mm 79 W/m2
09:31 59.4 °F /  15.2 °C 55.2 °F /  12.9 °C 30in /  1016.9hPa WSW 2mph /  3.2km/h 6mph /  9.7km/h 86% 0in /  0.0mm 70 W/m2
09:36 59.5 °F /  15.3 °C 55.4 °F /  13 °C 30in /  1016.9hPa WSW 2.9mph /  4.7km/h 6mph /  9.7km/h 86% 0in /  0.0mm 65 W/m2
09:41 59.4 °F /  15.2 °C 55.2 °F /  12.9 °C 30in /  1016.9hPa WSW 0.9mph /  1.4km/h 6mph /  9.7km/h 86% 0in /  0.0mm 69 W/m2
09:46 59.5 °F /  15.3 °C 55.4 °F /  13 °C 30in /  1016.9hPa West 0.9mph /  1.4km/h 7mph /  11.3km/h 86% 0in /  0.0mm 65 W/m2
09:51 59.4 °F /  15.2 °C 55.2 °F /  12.9 °C 30in /  1016.9hPa West 4mph /  6.4km/h 5mph /  8km/h 86% 0in /  0.0mm 63 W/m2
09:56 59.4 °F /  15.2 °C 55.2 °F /  12.9 °C 30in /  1016.9hPa NW 4.9mph /  7.9km/h 6mph /  9.7km/h 86% 0in /  0.0mm 67 W/m2
10:01 59.5 °F /  15.3 °C 55.4 °F /  13 °C 30in /  1016.9hPa WSW 2mph /  3.2km/h 4mph /  6.4km/h 86% 0in /  0.0mm 70 W/m2
10:06 59.5 °F /  15.3 °C 55.4 °F /  13 °C 30in /  1017.3hPa West 4mph /  6.4km/h 4mph /  6.4km/h 86% 0in /  0.0mm 67 W/m2
10:11 59.5 °F /  15.3 °C 55.4 °F /  13 °C 30in /  1017.3hPa West 6.9mph /  11.1km/h 7mph /  11.3km/h 86% 0in /  0.0mm 67 W/m2
10:16 59.5 °F /  15.3 °C 55.4 °F /  13 °C 30in /  1017.3hPa WNW 2mph /  3.2km/h 4mph /  6.4km/h 86% 0in /  0.0mm 69 W/m2
10:21 59.5 °F /  15.3 °C 55 °F /  12.8 °C 30in /  1017.3hPa West 4mph /  6.4km/h 11mph /  17.7km/h 85% 0in /  0.0mm 69 W/m2
10:26 59.5 °F /  15.3 °C 55 °F /  12.8 °C 30in /  1017.3hPa SW 4mph /  6.4km/h 6mph /  9.7km/h 85% 0in /  0.0mm 70 W/m2
10:31 59.5 °F /  15.3 °C 55.4 °F /  13 °C 30in /  1017.3hPa WSW 4mph /  6.4km/h 11mph /  17.7km/h 86% 0in /  0.0mm 76 W/m2
10:36 59.7 °F /  15.4 °C 55.2 °F /  12.9 °C 30in /  1017.3hPa WSW 2.9mph /  4.7km/h 7mph /  11.3km/h 85% 0in /  0.0mm 90 W/m2
10:41 59.7 °F /  15.4 °C 55.6 °F /  13.1 °C 30in /  1017.3hPa West 2mph /  3.2km/h 3mph /  4.8km/h 86% 0in /  0.0mm 113 W/m2
10:46 59.9 °F /  15.5 °C 55.4 °F /  13 °C 30in /  1017.3hPa NW 0.9mph /  1.4km/h 7mph /  11.3km/h 85% 0in /  0.0mm 113 W/m2
10:51 60.1 °F /  15.6 °C 55.6 °F /  13.1 °C 30in /  1017.3hPa WNW 2mph /  3.2km/h 4mph /  6.4km/h 85% 0in /  0.0mm 118 W/m2
10:56 60.3 °F /  15.7 °C 55.8 °F /  13.2 °C 30in /  1017.3hPa West 2mph /  3.2km/h 4mph /  6.4km/h 85% 0in /  0.0mm 104 W/m2
11:02 60.3 °F /  15.7 °C 55.4 °F /  13 °C 30in /  1017.3hPa West 2mph /  3.2km/h 4mph /  6.4km/h 84% 0in /  0.0mm 151 W/m2
11:07 60.4 °F /  15.8 °C 55.6 °F /  13.1 °C 30in /  1017.3hPa West 2mph /  3.2km/h 7mph /  11.3km/h 84% 0in /  0.0mm 158 W/m2
Juneau County Weather
Compliments of Weather Underground - 2 mb